createdAt,value
2022-10-19T00:00:52.131Z,13.90
2022-10-19T00:03:22.433Z,13.90
2022-10-19T00:05:51.213Z,13.80
2022-10-19T00:08:18.991Z,13.80
2022-10-19T00:10:46.944Z,13.90
2022-10-19T00:13:14.726Z,13.90
2022-10-19T00:15:42.797Z,14.00
2022-10-19T00:18:11.999Z,13.90
2022-10-19T00:20:39.726Z,13.90
2022-10-19T00:23:07.470Z,14.00
2022-10-19T00:25:35.238Z,13.90
2022-10-19T00:28:02.990Z,14.00
2022-10-19T00:30:30.739Z,14.00
2022-10-19T00:32:58.852Z,14.10
2022-10-19T00:35:27.931Z,14.00
2022-10-19T00:37:55.688Z,14.10
2022-10-19T00:40:23.484Z,14.10
2022-10-19T00:42:55.488Z,14.10
2022-10-19T00:45:23.247Z,14.10
2022-10-19T00:47:51.694Z,14.10
2022-10-19T00:50:19.854Z,14.20
2022-10-19T00:52:49.067Z,14.10
2022-10-19T00:55:17.462Z,14.10
2022-10-19T00:57:45.404Z,14.10
2022-10-19T01:00:13.878Z,14.20
2022-10-19T01:02:41.645Z,14.20
2022-10-19T01:05:10.313Z,14.20
2022-10-19T01:07:38.165Z,14.20
2022-10-19T01:10:09.551Z,14.20
2022-10-19T01:13:03.778Z,14.20
2022-10-19T01:15:39.712Z,14.20
2022-10-19T01:18:16.063Z,14.20
2022-10-19T01:21:19.501Z,14.20
2022-10-19T01:24:37.128Z,14.20
2022-10-19T01:27:37.421Z,14.20
2022-10-19T01:30:14.522Z,14.20
2022-10-19T01:32:58.765Z,14.30
2022-10-19T01:35:34.129Z,14.20
2022-10-19T01:38:20.112Z,14.20
2022-10-19T01:40:56.949Z,14.20
2022-10-19T01:43:38.792Z,14.20
2022-10-19T01:46:12.787Z,14.20
2022-10-19T01:48:45.360Z,14.20
2022-10-19T01:51:18.410Z,14.20
2022-10-19T01:53:52.032Z,14.20
2022-10-19T01:56:24.503Z,14.20
2022-10-19T01:58:53.243Z,14.20
2022-10-19T02:01:25.071Z,14.30
2022-10-19T02:03:54.558Z,14.30
2022-10-19T02:06:23.198Z,14.30
2022-10-19T02:08:53.592Z,14.30
2022-10-19T02:11:23.233Z,14.30
2022-10-19T02:13:56.962Z,14.30
2022-10-19T02:16:30.564Z,14.30
2022-10-19T02:19:00.994Z,14.30
2022-10-19T02:21:29.258Z,14.30
2022-10-19T02:23:57.020Z,14.30
2022-10-19T02:26:24.797Z,14.30
2022-10-19T02:28:54.435Z,14.30
2022-10-19T02:31:22.589Z,14.30
2022-10-19T02:33:51.918Z,14.30
2022-10-19T02:36:20.523Z,14.30
2022-10-19T02:38:48.445Z,14.30
2022-10-19T02:41:19.895Z,14.30
2022-10-19T02:43:51.046Z,14.30
2022-10-19T02:46:24.630Z,14.30
2022-10-19T02:48:55.062Z,14.30
2022-10-19T02:51:30.770Z,14.30
2022-10-19T02:54:01.189Z,14.30
2022-10-19T02:56:32.208Z,14.30
2022-10-19T02:58:59.950Z,14.20
2022-10-19T03:01:27.955Z,14.20
2022-10-19T03:03:57.197Z,14.20
2022-10-19T03:06:24.979Z,14.10
2022-10-19T03:08:52.750Z,14.20
2022-10-19T03:11:20.528Z,14.20
2022-10-19T03:16:21.122Z,14.20
2022-10-19T03:18:49.539Z,14.20
2022-10-19T03:21:19.638Z,14.20
2022-10-19T03:23:47.528Z,14.20
2022-10-19T03:26:17.944Z,14.30
2022-10-19T03:28:45.719Z,14.30
2022-10-19T03:31:13.596Z,14.30
2022-10-19T03:33:41.429Z,14.30
2022-10-19T03:36:24.672Z,14.20
2022-10-19T03:38:52.766Z,14.20
2022-10-19T03:41:21.026Z,14.20
2022-10-19T03:43:49.203Z,14.20
2022-10-19T03:46:17.561Z,14.20
2022-10-19T03:48:45.669Z,14.20
2022-10-19T03:51:15.339Z,14.30
2022-10-19T03:53:45.046Z,14.20
2022-10-19T03:56:15.123Z,14.20
2022-10-19T03:58:44.524Z,14.20
2022-10-19T04:01:14.542Z,14.20
2022-10-19T04:03:42.565Z,14.20
2022-10-19T04:06:15.869Z,14.20
2022-10-19T04:08:49.928Z,14.20
2022-10-19T04:11:19.933Z,14.30
2022-10-19T04:13:50.158Z,14.20
2022-10-19T04:16:18.643Z,14.30
2022-10-19T04:18:46.561Z,14.30
2022-10-19T04:21:23.219Z,14.30
2022-10-19T04:23:53.777Z,14.20
2022-10-19T04:26:21.698Z,14.20
2022-10-19T04:28:49.720Z,14.30
2022-10-19T04:31:17.567Z,14.20
2022-10-19T04:36:14.483Z,14.20
2022-10-19T04:38:42.450Z,14.20
2022-10-19T04:41:13.314Z,14.20
2022-10-19T04:43:41.688Z,14.20
2022-10-19T04:46:12.013Z,14.20
2022-10-19T04:48:41.548Z,14.20
2022-10-19T04:51:11.430Z,14.10
2022-10-19T04:53:40.550Z,14.10
2022-10-19T04:56:13.245Z,14.20
2022-10-19T04:58:41.093Z,14.20
2022-10-19T05:01:12.144Z,14.20
2022-10-19T05:03:40.365Z,14.10
2022-10-19T05:06:09.190Z,14.10
2022-10-19T05:08:37.695Z,14.10
2022-10-19T05:11:08.063Z,14.10
2022-10-19T05:13:38.412Z,14.10
2022-10-19T05:16:08.685Z,14.20
2022-10-19T05:18:36.514Z,14.20
2022-10-19T05:21:05.740Z,14.20
2022-10-19T05:23:34.600Z,14.20
2022-10-19T05:26:03.736Z,14.20
2022-10-19T05:28:32.039Z,14.10
2022-10-19T05:31:09.097Z,14.10
2022-10-19T05:33:37.794Z,14.10
2022-10-19T05:36:17.992Z,14.10
2022-10-19T05:38:46.964Z,14.10
2022-10-19T05:41:14.961Z,14.10
2022-10-19T05:43:43.170Z,14.20
2022-10-19T05:46:15.272Z,14.20
2022-10-19T05:48:43.117Z,14.20
2022-10-19T05:51:13.557Z,14.20
2022-10-19T05:53:41.762Z,14.20
2022-10-19T05:56:13.620Z,14.30
2022-10-19T05:58:41.412Z,14.30
2022-10-19T06:01:09.362Z,14.30
2022-10-19T06:03:38.537Z,14.30
2022-10-19T06:06:08.090Z,14.30
2022-10-19T06:08:36.382Z,14.30
2022-10-19T06:11:08.021Z,14.30
2022-10-19T06:13:36.116Z,14.30
2022-10-19T06:16:04.441Z,14.40
2022-10-19T06:18:32.424Z,14.40
2022-10-19T06:21:04.933Z,14.40
2022-10-19T06:23:33.534Z,14.50
2022-10-19T06:26:03.235Z,14.50
2022-10-19T06:28:31.138Z,14.50
2022-10-19T06:30:59.217Z,14.50
2022-10-19T06:33:27.146Z,14.50
2022-10-19T06:35:55.776Z,14.50
2022-10-19T06:38:25.163Z,14.40
2022-10-19T06:40:52.927Z,14.40
2022-10-19T06:43:20.675Z,14.40
2022-10-19T06:45:48.415Z,14.40
2022-10-19T06:48:16.172Z,14.40
2022-10-19T06:50:43.947Z,14.40
2022-10-19T06:53:11.742Z,14.40
2022-10-19T06:55:40.825Z,14.40
2022-10-19T06:58:08.944Z,14.40
2022-10-19T07:00:36.758Z,14.40
2022-10-19T07:03:04.647Z,14.40
2022-10-19T07:05:32.408Z,14.40
2022-10-19T07:08:00.198Z,14.30
2022-10-19T07:10:27.990Z,14.40
2022-10-19T07:12:58.603Z,14.30
2022-10-19T07:15:26.491Z,14.30
2022-10-19T07:17:54.534Z,14.30
2022-10-19T07:20:22.289Z,14.30
2022-10-19T07:22:50.083Z,14.30
2022-10-19T07:25:17.958Z,14.30
2022-10-19T07:27:45.736Z,14.30
2022-10-19T07:30:14.855Z,14.30
2022-10-19T07:32:46.763Z,14.40
2022-10-19T07:35:15.047Z,14.40
2022-10-19T07:37:42.895Z,14.40
2022-10-19T07:40:12.159Z,14.50
2022-10-19T07:42:40.149Z,14.50
2022-10-19T07:45:08.579Z,14.50
2022-10-19T07:47:37.687Z,14.60
2022-10-19T07:50:06.094Z,14.60
2022-10-19T07:52:36.708Z,14.70
2022-10-19T07:55:05.660Z,14.60
2022-10-19T07:57:33.451Z,14.60
2022-10-19T08:00:01.206Z,14.70
2022-10-19T08:02:39.370Z,14.70
2022-10-19T08:05:18.534Z,14.80
2022-10-19T08:07:46.867Z,14.80
2022-10-19T08:10:14.720Z,14.80
2022-10-19T08:12:42.530Z,14.80
2022-10-19T08:15:10.887Z,14.80
2022-10-19T08:17:39.685Z,14.80
2022-10-19T08:20:09.212Z,14.80
2022-10-19T08:22:38.295Z,14.80
2022-10-19T08:25:06.905Z,14.90
2022-10-19T08:30:08.206Z,14.90
2022-10-19T08:32:36.431Z,15.00
2022-10-19T08:35:08.517Z,15.10
2022-10-19T08:37:45.322Z,15.10
2022-10-19T08:40:19.627Z,15.20
2022-10-19T08:42:54.616Z,15.30
2022-10-19T08:45:33.489Z,15.30
2022-10-19T08:48:16.002Z,15.30
2022-10-19T08:50:45.857Z,15.20
2022-10-19T08:53:19.254Z,15.30
2022-10-19T08:56:03.544Z,15.30
2022-10-19T08:58:49.966Z,15.30
2022-10-19T09:01:32.660Z,15.30
2022-10-19T09:04:07.386Z,15.30
2022-10-19T09:06:44.487Z,15.40
2022-10-19T09:09:14.699Z,15.40
2022-10-19T09:11:48.215Z,15.40
2022-10-19T09:14:21.282Z,15.40
2022-10-19T09:16:49.161Z,15.50
2022-10-19T09:19:25.846Z,15.40
2022-10-19T09:21:58.382Z,15.50
2022-10-19T09:24:38.641Z,15.40
2022-10-19T09:27:11.925Z,15.50
2022-10-19T09:29:44.537Z,15.50
2022-10-19T09:32:16.180Z,15.50
2022-10-19T09:34:47.269Z,15.50
2022-10-19T09:37:23.203Z,15.50
2022-10-19T09:39:55.900Z,15.50
2022-10-19T09:42:26.509Z,15.50
2022-10-19T09:44:56.423Z,15.60
2022-10-19T09:47:35.717Z,15.60
2022-10-19T09:50:19.003Z,15.60
2022-10-19T09:52:47.726Z,15.70
2022-10-19T09:55:30.486Z,15.70
2022-10-19T09:58:06.137Z,15.70
2022-10-19T10:00:42.189Z,15.70
2022-10-19T10:03:25.057Z,15.70
2022-10-19T10:05:53.622Z,15.60
2022-10-19T10:08:23.727Z,15.70
2022-10-19T10:11:06.860Z,15.70
2022-10-19T10:13:38.358Z,15.80
2022-10-19T10:16:09.032Z,15.80
2022-10-19T10:18:41.035Z,15.80
2022-10-19T10:21:15.397Z,15.90
2022-10-19T10:23:43.171Z,16.00
2022-10-19T10:26:20.267Z,15.90
2022-10-19T10:28:49.831Z,16.00
2022-10-19T10:31:23.959Z,16.10
2022-10-19T10:34:10.758Z,16.10
2022-10-19T10:36:52.612Z,16.20
2022-10-19T10:39:20.731Z,16.30
2022-10-19T10:41:50.138Z,16.40
2022-10-19T10:44:22.125Z,16.40
2022-10-19T10:46:56.615Z,16.40
2022-10-19T10:49:27.646Z,16.30
2022-10-19T10:51:57.759Z,16.30
2022-10-19T10:54:27.183Z,16.30
2022-10-19T10:57:13.904Z,16.30
2022-10-19T10:59:50.206Z,16.20
2022-10-19T11:02:32.912Z,16.20
2022-10-19T11:05:04.077Z,16.20
2022-10-19T11:07:34.743Z,16.20
2022-10-19T11:10:09.964Z,16.20
2022-10-19T11:12:42.495Z,16.20
2022-10-19T11:15:17.785Z,16.30
2022-10-19T11:17:56.538Z,16.40
2022-10-19T11:20:28.479Z,16.40
2022-10-19T11:23:06.582Z,16.50
2022-10-19T11:25:41.830Z,16.50
2022-10-19T11:28:26.558Z,16.50
2022-10-19T11:31:01.522Z,16.50
2022-10-19T11:33:46.657Z,16.50
2022-10-19T11:36:27.943Z,16.50
2022-10-19T11:39:07.717Z,16.50
2022-10-19T11:41:40.114Z,16.50
2022-10-19T11:44:30.939Z,16.40
2022-10-19T11:47:17.657Z,16.30
2022-10-19T11:49:56.500Z,16.30
2022-10-19T11:52:31.342Z,16.30
2022-10-19T11:55:09.417Z,16.40
2022-10-19T11:57:42.839Z,16.40
2022-10-19T12:00:37.668Z,16.40
2022-10-19T12:03:29.996Z,16.50
2022-10-19T12:06:10.870Z,16.50
2022-10-19T12:08:58.583Z,16.50
2022-10-19T12:11:35.665Z,16.60
2022-10-19T12:14:06.931Z,16.50
2022-10-19T12:16:39.065Z,16.50
2022-10-19T12:19:13.807Z,16.50
2022-10-19T12:21:43.478Z,16.50
2022-10-19T12:24:16.787Z,16.50
2022-10-19T12:26:47.076Z,16.40
2022-10-19T12:29:18.403Z,16.30
2022-10-19T12:31:48.832Z,16.30
2022-10-19T12:34:27.700Z,16.30
2022-10-19T12:36:59.907Z,16.30
2022-10-19T12:39:35.855Z,16.30
2022-10-19T12:42:11.791Z,16.40
2022-10-19T12:45:25.034Z,16.40
2022-10-19T12:48:20.414Z,16.40
2022-10-19T12:51:13.880Z,16.40
2022-10-19T12:53:44.283Z,16.50
2022-10-19T12:56:18.446Z,16.50
2022-10-19T12:58:51.078Z,16.60
2022-10-19T13:01:23.396Z,16.90
2022-10-19T13:04:07.805Z,17.00
2022-10-19T13:06:37.570Z,17.20
2022-10-19T13:09:07.390Z,17.10
2022-10-19T13:11:36.370Z,17.10
2022-10-19T13:14:07.139Z,17.00
2022-10-19T13:17:06.708Z,16.90
2022-10-19T13:19:36.178Z,17.00
2022-10-19T13:22:29.119Z,17.00
2022-10-19T13:25:27.149Z,17.10
2022-10-19T13:28:01.814Z,17.20
2022-10-19T13:31:06.108Z,17.20
2022-10-19T13:33:49.937Z,17.10
2022-10-19T13:36:20.595Z,17.20
2022-10-19T13:39:03.639Z,17.10
2022-10-19T13:41:47.890Z,17.10
2022-10-19T13:44:22.175Z,17.10
2022-10-19T13:46:58.499Z,17.10
2022-10-19T13:49:40.595Z,17.10
2022-10-19T13:52:29.215Z,17.10
2022-10-19T13:55:20.854Z,17.00
2022-10-19T13:58:07.885Z,17.00
2022-10-19T14:00:48.280Z,16.90
2022-10-19T14:03:30.778Z,16.90
2022-10-19T14:06:13.336Z,17.00
2022-10-19T14:09:15.106Z,17.10
2022-10-19T14:11:46.127Z,17.10
2022-10-19T14:14:16.559Z,17.10
2022-10-19T14:16:50.555Z,17.30
2022-10-19T14:19:26.882Z,17.40
2022-10-19T14:21:56.540Z,17.40
2022-10-19T14:24:33.705Z,17.30
2022-10-19T14:27:05.153Z,17.30
2022-10-19T14:29:43.125Z,17.20
2022-10-19T14:32:12.039Z,17.20
2022-10-19T14:34:41.918Z,17.20
2022-10-19T14:37:17.491Z,17.20
2022-10-19T14:39:59.157Z,17.20
2022-10-19T14:42:37.865Z,17.10
2022-10-19T14:45:12.982Z,17.00
2022-10-19T14:47:56.139Z,16.90
2022-10-19T14:50:29.236Z,17.00
2022-10-19T14:53:02.790Z,16.90
2022-10-19T14:55:36.600Z,16.80
2022-10-19T14:58:18.441Z,16.80
2022-10-19T15:00:48.202Z,16.80
2022-10-19T15:03:23.457Z,16.80
2022-10-19T15:05:56.222Z,16.70
2022-10-19T15:08:31.340Z,16.60
2022-10-19T15:10:59.639Z,16.60
2022-10-19T15:13:32.736Z,16.60
2022-10-19T15:16:00.879Z,16.50
2022-10-19T15:18:48.797Z,16.40
2022-10-19T15:21:20.466Z,16.30
2022-10-19T15:23:49.864Z,16.20
2022-10-19T15:26:21.215Z,16.10
2022-10-19T15:28:51.083Z,16.10
2022-10-19T15:31:20.792Z,16.00
2022-10-19T15:33:51.846Z,15.90
2022-10-19T15:36:21.477Z,15.90
2022-10-19T15:38:50.538Z,15.70
2022-10-19T15:41:21.342Z,15.70
2022-10-19T15:43:52.763Z,15.70
2022-10-19T15:46:31.169Z,15.70
2022-10-19T15:49:01.150Z,15.70
2022-10-19T15:51:50.642Z,15.70
2022-10-19T15:54:19.435Z,15.70
2022-10-19T15:56:51.819Z,15.70
2022-10-19T15:59:23.764Z,15.70
2022-10-19T16:01:53.806Z,15.70
2022-10-19T16:04:22.911Z,15.70
2022-10-19T16:06:50.707Z,15.60
2022-10-19T16:09:20.954Z,15.60
2022-10-19T16:11:50.106Z,15.60
2022-10-19T16:14:17.868Z,15.60
2022-10-19T16:16:47.030Z,15.60
2022-10-19T16:19:14.786Z,15.60
2022-10-19T16:21:46.714Z,15.60
2022-10-19T16:24:17.175Z,15.60
2022-10-19T16:26:45.044Z,15.60
2022-10-19T16:29:12.799Z,15.50
2022-10-19T16:31:40.591Z,15.50
2022-10-19T16:34:09.702Z,15.50
2022-10-19T16:36:37.551Z,15.50
2022-10-19T16:39:05.425Z,15.40
2022-10-19T16:41:33.261Z,15.40
2022-10-19T16:44:01.087Z,15.40
2022-10-19T16:46:28.930Z,15.40
2022-10-19T16:48:57.057Z,15.40
2022-10-19T16:51:44.451Z,15.30
2022-10-19T16:54:13.089Z,15.30
2022-10-19T16:56:45.349Z,15.30
2022-10-19T16:59:14.840Z,15.20
2022-10-19T17:01:44.734Z,15.20
2022-10-19T17:04:14.046Z,15.20
2022-10-19T17:06:42.243Z,15.20
2022-10-19T17:09:37.118Z,15.10
2022-10-19T17:11:59.351Z,15.10
2022-10-19T17:14:27.183Z,15.00
2022-10-19T17:16:54.934Z,15.00
2022-10-19T17:19:23.099Z,15.00
2022-10-19T17:21:50.857Z,14.90
2022-10-19T17:24:22.267Z,14.90
2022-10-19T17:26:51.265Z,14.80
2022-10-19T17:29:20.555Z,14.70
2022-10-19T17:31:48.940Z,14.60
2022-10-19T17:34:17.713Z,14.60
2022-10-19T17:36:46.647Z,14.60
2022-10-19T17:39:17.564Z,14.50
2022-10-19T17:41:46.818Z,14.60
2022-10-19T17:44:15.120Z,14.50
2022-10-19T17:46:43.040Z,14.50
2022-10-19T17:49:11.520Z,14.50
2022-10-19T17:51:39.699Z,14.50
2022-10-19T17:54:11.641Z,14.50
2022-10-19T17:56:40.298Z,14.50
2022-10-19T17:59:09.501Z,14.40
2022-10-19T18:01:37.870Z,14.40
2022-10-19T18:04:06.240Z,14.40
2022-10-19T18:06:36.002Z,14.30
2022-10-19T18:09:07.147Z,14.30
2022-10-19T18:11:38.466Z,14.20
2022-10-19T18:14:08.139Z,14.20
2022-10-19T18:16:39.358Z,14.10
2022-10-19T18:19:08.011Z,14.10
2022-10-19T18:21:41.035Z,14.00
2022-10-19T18:24:14.368Z,13.90
2022-10-19T18:26:43.466Z,13.90
2022-10-19T18:29:13.796Z,13.80
2022-10-19T18:31:42.905Z,13.60
2022-10-19T18:34:15.601Z,13.70
2022-10-19T18:36:43.495Z,13.60
2022-10-19T18:39:13.182Z,13.60
2022-10-19T18:41:41.607Z,13.60
2022-10-19T18:44:12.453Z,13.50
2022-10-19T18:46:41.834Z,13.50
2022-10-19T18:49:09.973Z,13.40
2022-10-19T18:51:37.922Z,13.40
2022-10-19T18:54:06.182Z,13.30
2022-10-19T18:56:36.329Z,13.20
2022-10-19T18:59:04.397Z,13.20
2022-10-19T19:01:32.374Z,13.20
2022-10-19T19:04:08.624Z,13.10
2022-10-19T19:06:38.128Z,13.20
2022-10-19T19:09:07.805Z,13.10
2022-10-19T19:11:38.068Z,13.10
2022-10-19T19:14:08.543Z,13.00
2022-10-19T19:16:38.018Z,13.00
2022-10-19T19:19:07.678Z,12.90
2022-10-19T19:21:36.570Z,12.90
2022-10-19T19:24:07.059Z,13.00
2022-10-19T19:26:37.887Z,12.90
2022-10-19T19:29:05.960Z,12.90
2022-10-19T19:31:33.860Z,12.90
2022-10-19T19:34:05.698Z,13.00
2022-10-19T19:36:34.905Z,13.00
2022-10-19T19:39:03.555Z,13.00
2022-10-19T19:41:33.962Z,13.00
2022-10-19T19:44:01.762Z,13.00
2022-10-19T19:46:29.704Z,12.90
2022-10-19T19:49:01.000Z,12.90
2022-10-19T19:51:29.915Z,12.80
2022-10-19T19:53:59.732Z,12.80
2022-10-19T19:56:28.734Z,12.70
2022-10-19T19:58:57.958Z,12.70
2022-10-19T20:01:26.524Z,12.60
2022-10-19T20:03:54.638Z,12.70
2022-10-19T20:06:25.781Z,12.60
2022-10-19T20:08:54.456Z,12.60
2022-10-19T20:11:25.232Z,12.60
2022-10-19T20:13:53.267Z,12.50
2022-10-19T20:16:26.673Z,12.40
2022-10-19T20:19:00.016Z,12.50
2022-10-19T20:21:27.909Z,12.40
2022-10-19T20:23:55.715Z,12.40
2022-10-19T20:26:25.771Z,12.30
2022-10-19T20:28:54.343Z,12.30
2022-10-19T20:31:23.060Z,12.30
2022-10-19T20:33:50.853Z,12.30
2022-10-19T20:36:20.941Z,12.20
2022-10-19T20:38:50.072Z,12.20
2022-10-19T20:41:18.928Z,12.20
2022-10-19T20:43:48.346Z,12.10
2022-10-19T20:46:18.606Z,12.20
2022-10-19T20:48:46.839Z,12.20
2022-10-19T20:51:16.633Z,12.20
2022-10-19T20:53:46.252Z,12.10
2022-10-19T20:56:16.206Z,12.00
2022-10-19T20:58:45.093Z,12.10
2022-10-19T21:01:16.107Z,12.00
2022-10-19T21:03:47.306Z,12.10
2022-10-19T21:06:15.247Z,12.10
2022-10-19T21:08:43.532Z,12.10
2022-10-19T21:11:16.277Z,12.00
2022-10-19T21:13:44.457Z,12.00
2022-10-19T21:16:15.246Z,12.00
2022-10-19T21:18:43.732Z,11.90
2022-10-19T21:21:17.625Z,11.90
2022-10-19T21:23:47.182Z,11.90
2022-10-19T21:26:15.302Z,11.90
2022-10-19T21:28:47.063Z,11.90
2022-10-19T21:31:17.986Z,11.90
2022-10-19T21:33:45.898Z,11.80
2022-10-19T21:36:15.232Z,11.80
2022-10-19T21:38:43.638Z,11.80
2022-10-19T21:41:14.168Z,11.70
2022-10-19T21:43:42.352Z,11.70
2022-10-19T21:46:13.263Z,11.70
2022-10-19T21:48:42.910Z,11.60
2022-10-19T21:51:24.766Z,11.60
2022-10-19T21:53:52.550Z,11.60
2022-10-19T21:56:20.336Z,11.60
2022-10-19T21:58:48.967Z,11.60
2022-10-19T22:01:18.013Z,11.60
2022-10-19T22:03:47.360Z,11.50
2022-10-19T22:06:15.571Z,11.50
2022-10-19T22:08:47.042Z,11.50
2022-10-19T22:11:15.218Z,11.50
2022-10-19T22:13:43.466Z,11.50
2022-10-19T22:16:13.631Z,11.50
2022-10-19T22:18:41.439Z,11.40
2022-10-19T22:21:12.417Z,11.50
2022-10-19T22:23:40.687Z,11.50
2022-10-19T22:26:15.907Z,11.60
2022-10-19T22:28:44.384Z,11.50
2022-10-19T22:31:13.150Z,11.50
2022-10-19T22:33:41.114Z,11.50
2022-10-19T22:36:13.174Z,11.50
2022-10-19T22:38:41.867Z,11.50
2022-10-19T22:41:09.936Z,11.50
2022-10-19T22:43:37.965Z,11.50
2022-10-19T22:46:05.765Z,11.50
2022-10-19T22:48:33.496Z,11.50
2022-10-19T22:51:01.270Z,11.50
2022-10-19T22:53:30.410Z,11.50
2022-10-19T22:55:58.166Z,11.50
2022-10-19T22:58:25.961Z,11.50
2022-10-19T23:01:04.814Z,11.40
2022-10-19T23:03:33.081Z,11.40
2022-10-19T23:06:01.194Z,11.50
2022-10-19T23:08:30.309Z,11.40
2022-10-19T23:10:58.114Z,11.40
2022-10-19T23:13:26.081Z,11.40
2022-10-19T23:15:53.943Z,11.40
2022-10-19T23:18:22.492Z,11.40
2022-10-19T23:20:57.082Z,11.40
2022-10-19T23:23:25.633Z,11.50
2022-10-19T23:26:02.883Z,11.60
2022-10-19T23:28:32.358Z,11.70
2022-10-19T23:31:05.282Z,11.70
2022-10-19T23:33:33.767Z,11.70
2022-10-19T23:36:08.172Z,11.70
2022-10-19T23:38:36.188Z,11.70
2022-10-19T23:41:05.460Z,11.70
2022-10-19T23:43:33.420Z,11.80
2022-10-19T23:46:01.600Z,11.80
2022-10-19T23:48:29.434Z,11.80
2022-10-19T23:50:58.502Z,11.80
2022-10-19T23:53:26.971Z,11.80
2022-10-19T23:55:59.777Z,11.80
2022-10-19T23:58:29.606Z,11.80
